LTFJ METAR and TAF | Updated Today

LTFJ METAR

Sabiha Gökçen International Airport

Observation time: 70 min. ago

LTFJ 292020Z 28003KT CAVOK 22/16 Q1012 NOSIG RMK RWY24 00000KT

Need help? Read our tutorial on how to read METARs or read the parsed version below.

Sabiha Gökçen International Airport (LTFJ) METAR

  • Weather conditions on Thu, 29 Sep 2022 20:20:00 +0000 (70 min. ago):
  • Present conditions: Dry
  • Clouds: Clear skies
  • Visibility: Greater than 10 km
  • Wind: 280 degrees at 3 knots
  • Temperature: 22 celsius
  • Dew point: 16 celsius
  • Pressure: 1012 millibars
  • Remarks: RWY24 00000KT


Useful to know...

LTFJ TAF

Sabiha Gökçen International Airport

TAF LTFJ 291640Z 2918/3018 VRB02KT CAVOK PROB40 3009/3013 25013KT
Observation time: 4:50 hr. ago
Need help? Read our tutorial on how to read TAFs or read the parsed version below.

Parsed version of TAF for Sabiha Gökçen International Airport (LTFJ)

  • From 29 September at 18:00 UTC, to day 30 of the month at 18:00 UTC
  • Visibility: Greater than 10 km
  • Wind: Variable at 2
  • From 30 September at 09:00 UTC, to day 30 of the month at 13:00 UTC
    Probability of 40%
  • Wind: 250 degrees at 13